Time;durP1;ratioP1;P1;durP2;ratioP2;P2;SDS_P1;SDS_P2;PMS_P1;PMS_P2;Temp;Humidity;BMP_temperature;BMP_pressure;BME280_temperature;BME280_humidity;BME280_pressure;Samples;Min_cycle;Max_cycle;Signal;HPM_P1;HPM_P2
2023/05/10 00:03:40;;;;;;;4.13;2.92;;;18.20;75.00;;;;;;10367855;28;20054;-49
2023/05/10 00:08:41;;;;;;;4.32;3.03;;;18.20;75.00;;;;;;10367479;28;20540;-47
2023/05/10 00:13:41;;;;;;;5.72;3.50;;;18.20;74.90;;;;;;10367700;28;20033;-48
2023/05/10 00:18:42;;;;;;;5.10;3.58;;;18.20;74.90;;;;;;10366932;28;20030;-46
2023/05/10 00:23:43;;;;;;;5.13;3.47;;;18.20;74.90;;;;;;10353745;28;20116;-50
2023/05/10 00:28:43;;;;;;;4.35;3.75;;;18.20;74.90;;;;;;10366291;28;20441;-47
2023/05/10 00:33:44;;;;;;;8.55;4.57;;;18.20;74.90;;;;;;10378859;28;20026;-46
2023/05/10 00:38:45;;;;;;;4.72;3.40;;;18.20;74.90;;;;;;10366231;28;20100;-48
2023/05/10 00:43:46;;;;;;;6.05;4.15;;;18.20;74.80;;;;;;10366780;28;20524;-48
2023/05/10 00:48:47;;;;;;;5.40;4.03;;;18.10;74.80;;;;;;10366215;28;20093;-47
2023/05/10 00:53:49;;;;;;;7.65;4.30;;;18.20;74.80;;;;;;10366434;28;20466;-46
2023/05/10 00:58:50;;;;;;;5.57;4.15;;;18.20;74.80;;;;;;10364877;28;20068;-45
2023/05/10 01:03:50;;;;;;;5.28;4.25;;;18.20;76.20;;;;;;10364063;28;20034;-47
2023/05/10 01:08:51;;;;;;;6.05;4.10;;;18.30;78.10;;;;;;10365837;28;20026;-47
2023/05/10 01:13:56;;;;;;;6.43;4.70;;;18.40;78.20;;;;;;10365367;28;20161;-48
2023/05/10 01:18:57;;;;;;;7.68;4.63;;;18.40;77.60;;;;;;10364848;28;20026;-47
2023/05/10 01:24:36;;;;;;;7.45;5.28;;;18.40;77.70;;;;;;10350247;28;20540;-49
2023/05/10 01:30:03;;;;;;;5.25;4.32;;;18.30;77.40;;;;;;10365359;28;20377;-45
2023/05/10 01:35:32;;;;;;;7.28;4.60;;;18.30;77.40;;;;;;10351857;28;20541;-46
2023/05/10 01:40:47;;;;;;;6.97;4.33;;;18.30;77.10;;;;;;10364450;28;20080;-47
2023/05/10 01:46:10;;;;;;;8.15;4.65;;;18.20;76.70;;;;;;10364465;28;20026;-46
2023/05/10 01:51:11;;;;;;;4.78;3.85;;;18.20;76.20;;;;;;10362895;28;20522;-50
2023/05/10 01:56:14;;;;;;;6.28;4.63;;;18.20;76.30;;;;;;10362992;28;20080;-49
2023/05/10 02:01:16;;;;;;;5.40;3.45;;;18.20;76.30;;;;;;10363800;28;20029;-46
2023/05/10 02:06:20;;;;;;;6.03;4.00;;;18.20;76.10;;;;;;10362676;28;20058;-47
2023/05/10 02:11:21;;;;;;;7.22;4.68;;;18.20;76.30;;;;;;10362408;28;20131;-48
2023/05/10 02:16:26;;;;;;;5.45;4.20;;;18.20;76.20;;;;;;10362359;28;20022;-46
2023/05/10 02:21:28;;;;;;;4.78;3.28;;;18.20;75.90;;;;;;10362317;28;20026;-47
2023/05/10 02:26:30;;;;;;;6.38;4.35;;;18.20;75.90;;;;;;10349083;28;20465;-46
2023/05/10 02:31:33;;;;;;;6.80;3.78;;;18.20;75.80;;;;;;10374572;28;20032;-48
2023/05/10 02:36:34;;;;;;;5.78;4.05;;;18.20;75.00;;;;;;10362206;28;20022;-48
2023/05/10 02:41:36;;;;;;;7.03;4.70;;;18.20;75.40;;;;;;10337761;28;20033;-48
2023/05/10 02:46:37;;;;;;;5.05;3.95;;;18.10;75.40;;;;;;10362141;28;20092;-48
2023/05/10 02:51:50;;;;;;;6.68;4.63;;;18.10;75.00;;;;;;10362656;28;20117;-47
2023/05/10 02:56:57;;;;;;;4.82;3.70;;;18.20;74.90;;;;;;10369486;28;20105;-49
2023/05/10 03:02:00;;;;;;;5.60;4.85;;;18.10;74.90;;;;;;10369141;28;20116;-49
2023/05/10 03:07:01;;;;;;;5.50;4.22;;;18.10;74.90;;;;;;10369007;28;20631;-46
2023/05/10 03:12:29;;;;;;;4.65;3.55;;;18.10;74.80;;;;;;10368659;28;20121;-50
2023/05/10 03:17:49;;;;;;;5.88;4.45;;;18.10;74.90;;;;;;10369595;28;20026;-48
2023/05/10 03:22:57;;;;;;;8.13;5.65;;;18.10;74.80;;;;;;10369171;28;20596;-46
2023/05/10 03:28:00;;;;;;;9.20;7.18;;;18.10;75.00;;;;;;10365711;28;20046;-48
2023/05/10 03:33:07;;;;;;;11.98;7.25;;;18.10;75.70;;;;;;10348832;28;20121;-48
2023/05/10 03:38:08;;;;;;;9.90;7.75;;;18.20;76.10;;;;;;10363460;28;20069;-49
2023/05/10 03:43:09;;;;;;;12.43;7.43;;;18.20;76.40;;;;;;10365101;28;20101;-50
2023/05/10 03:48:09;;;;;;;10.88;7.68;;;18.20;76.60;;;;;;10363874;28;20097;-47
2023/05/10 03:53:10;;;;;;;9.27;8.25;;;18.30;76.40;;;;;;10364373;28;20063;-53
2023/05/10 03:58:11;;;;;;;7.47;5.65;;;18.20;76.10;;;;;;10363270;28;20022;-47
2023/05/10 04:03:12;;;;;;;7.70;5.28;;;18.20;75.90;;;;;;10360468;28;20551;-47
2023/05/10 04:08:14;;;;;;;7.68;5.88;;;18.10;75.70;;;;;;10363829;28;20494;-48
2023/05/10 04:13:15;;;;;;;6.65;5.03;;;18.10;75.50;;;;;;10363756;28;20022;-49
2023/05/10 04:18:16;;;;;;;7.28;4.80;;;18.10;75.00;;;;;;10360902;28;20116;-47
2023/05/10 04:23:17;;;;;;;8.02;5.50;;;18.10;74.70;;;;;;10360587;28;20057;-47
2023/05/10 04:28:18;;;;;;;7.10;4.68;;;18.10;74.90;;;;;;10364406;28;20452;-48
2023/05/10 04:33:18;;;;;;;7.22;5.10;;;18.00;74.80;;;;;;10376247;28;20557;-47
2023/05/10 04:38:19;;;;;;;8.13;6.50;;;18.00;75.00;;;;;;10354314;28;20022;-48
2023/05/10 04:43:20;;;;;;;9.10;6.55;;;18.00;75.00;;;;;;10366124;28;20034;-49
2023/05/10 04:48:20;;;;;;;9.32;6.72;;;18.00;74.80;;;;;;10365684;28;20644;-49
2023/05/10 04:53:21;;;;;;;8.32;5.50;;;18.00;74.90;;;;;;10364620;28;20076;-48
2023/05/10 04:58:22;;;;;;;7.13;5.60;;;18.00;74.90;;;;;;10365657;28;20029;-50
2023/05/10 05:03:23;;;;;;;8.80;6.68;;;18.00;74.90;;;;;;10365709;28;20446;-51
2023/05/10 05:08:23;;;;;;;12.57;8.07;;;18.00;75.00;;;;;;10365187;28;20089;-47
2023/05/10 05:13:24;;;;;;;13.85;8.00;;;18.00;75.80;;;;;;10363340;28;20021;-49
2023/05/10 05:18:25;;;;;;;19.70;15.85;;;18.10;76.30;;;;;;10365305;28;20033;-50
2023/05/10 05:23:25;;;;;;;15.02;11.13;;;18.40;76.60;;;;;;10364789;28;20597;-45
2023/05/10 05:28:26;;;;;;;14.93;10.15;;;18.60;75.40;;;;;;10358259;28;20132;-46
2023/05/10 05:33:27;;;;;;;13.88;10.05;;;18.60;75.30;;;;;;10375559;28;20057;-47
2023/05/10 05:38:27;;;;;;;15.63;11.13;;;18.60;75.00;;;;;;10363430;28;20112;-47
2023/05/10 05:43:28;;;;;;;17.45;10.82;;;18.60;75.20;;;;;;10378137;28;20061;-49
2023/05/10 05:48:30;;;;;;;17.85;9.57;;;18.50;75.50;;;;;;10361942;28;20033;-47
2023/05/10 05:53:31;;;;;;;14.80;10.50;;;18.50;75.80;;;;;;10363813;28;20084;-48
2023/05/10 05:58:32;;;;;;;21.95;10.88;;;18.40;75.70;;;;;;10364018;28;20037;-47
2023/05/10 06:03:33;;;;;;;18.77;10.73;;;18.50;76.00;;;;;;10362143;28;20434;-50
2023/05/10 06:08:33;;;;;;;17.42;9.50;;;18.40;76.00;;;;;;10363096;28;20096;-48
2023/05/10 06:13:35;;;;;;;16.50;10.93;;;18.40;76.20;;;;;;10363695;28;20407;-53
2023/05/10 06:18:36;;;;;;;16.92;11.05;;;18.30;76.10;;;;;;10363520;28;20041;-49
2023/05/10 06:23:36;;;;;;;17.48;10.73;;;18.20;76.40;;;;;;10363489;28;20032;-50
2023/05/10 06:28:40;;;;;;;16.13;8.75;;;18.20;76.20;;;;;;10367339;28;20022;-50
2023/05/10 06:33:41;;;;;;;13.65;8.50;;;18.10;76.10;;;;;;10383099;28;20053;-51
2023/05/10 06:38:41;;;;;;;15.63;9.60;;;18.10;76.40;;;;;;10371225;28;20101;-50
2023/05/10 06:43:43;;;;;;;17.80;9.80;;;18.10;75.70;;;;;;10370877;28;20109;-50
2023/05/10 06:48:43;;;;;;;10.68;7.55;;;18.10;75.50;;;;;;10370711;28;20018;-49
2023/05/10 06:53:44;;;;;;;12.63;8.23;;;18.10;75.20;;;;;;10370452;28;20053;-50
2023/05/10 06:58:45;;;;;;;13.57;8.70;;;18.10;75.10;;;;;;10370425;28;20141;-49
2023/05/10 07:03:46;;;;;;;12.95;8.00;;;18.00;75.40;;;;;;10368942;28;20076;-49
2023/05/10 07:08:46;;;;;;;9.38;6.95;;;18.00;75.80;;;;;;10370159;28;20014;-48
2023/05/10 07:13:47;;;;;;;13.82;8.60;;;18.00;75.70;;;;;;10369770;28;20044;-47
2023/05/10 07:18:48;;;;;;;12.65;8.73;;;18.00;75.30;;;;;;10369546;28;20064;-48
2023/05/10 07:23:49;;;;;;;19.10;11.60;;;18.00;75.10;;;;;;10357689;28;20498;-54
2023/05/10 07:28:50;;;;;;;18.25;12.25;;;18.00;75.90;;;;;;10369416;28;20467;-49
2023/05/10 07:33:50;;;;;;;18.27;12.98;;;18.00;75.90;;;;;;10380909;28;20053;-49
2023/05/10 07:38:51;;;;;;;15.55;9.57;;;18.10;75.90;;;;;;10351650;28;20033;-48
2023/05/10 07:43:52;;;;;;;12.75;7.55;;;18.10;75.80;;;;;;10363585;28;20065;-48
2023/05/10 07:48:52;;;;;;;15.35;9.23;;;18.10;75.70;;;;;;10365971;28;20497;-48
2023/05/10 07:53:53;;;;;;;17.13;10.10;;;18.10;75.90;;;;;;10364781;28;20065;-49
2023/05/10 07:58:55;;;;;;;23.88;10.40;;;18.10;75.80;;;;;;10363405;28;20109;-49
2023/05/10 08:03:55;;;;;;;18.52;10.45;;;18.10;75.70;;;;;;10362456;28;20046;-47
2023/05/10 08:08:56;;;;;;;16.52;11.40;;;18.10;75.60;;;;;;10362344;28;20180;-50
2023/05/10 08:13:57;;;;;;;20.35;11.63;;;18.10;75.60;;;;;;10364728;28;20077;-47
2023/05/10 08:18:58;;;;;;;18.63;11.05;;;18.10;75.60;;;;;;10334619;28;20116;-49
2023/05/10 08:23:58;;;;;;;14.30;8.63;;;18.10;75.70;;;;;;10363890;28;20073;-47
2023/05/10 08:28:59;;;;;;;13.90;10.18;;;18.10;75.70;;;;;;10364999;28;20014;-48
2023/05/10 08:34:00;;;;;;;14.07;10.60;;;18.10;75.70;;;;;;10375608;28;20026;-49
2023/05/10 08:39:00;;;;;;;14.32;9.75;;;18.10;75.60;;;;;;10363350;28;20112;-47
2023/05/10 08:44:04;;;;;;;14.52;10.40;;;18.10;75.50;;;;;;10363827;28;20134;-48
2023/05/10 08:49:08;;;;;;;11.25;8.88;;;18.10;75.40;;;;;;10362279;28;20076;-49
2023/05/10 08:54:08;;;;;;;12.52;9.13;;;18.10;75.40;;;;;;10363901;28;20160;-47
2023/05/10 08:59:09;;;;;;;12.05;9.13;;;18.10;75.30;;;;;;10364097;28;20033;-49
2023/05/10 09:04:11;;;;;;;12.10;10.07;;;18.10;75.20;;;;;;10362530;28;20065;-49
2023/05/10 09:09:12;;;;;;;13.00;9.23;;;18.10;75.10;;;;;;10363439;28;20586;-47
2023/05/10 09:14:14;;;;;;;11.10;8.20;;;18.20;75.10;;;;;;10361893;28;20386;-48
2023/05/10 09:19:15;;;;;;;12.38;9.73;;;18.20;75.10;;;;;;10361571;28;20041;-48
2023/05/10 09:24:16;;;;;;;10.25;8.15;;;18.20;75.10;;;;;;10362907;28;20129;-47
2023/05/10 09:29:17;;;;;;;11.90;8.88;;;18.20;75.00;;;;;;10362585;28;20177;-47
2023/05/10 09:34:20;;;;;;;12.20;7.72;;;18.20;75.00;;;;;;10364335;28;20661;-48
2023/05/10 09:39:29;;;;;;;12.70;8.70;;;18.20;75.20;;;;;;10360245;28;20188;-46
2023/05/10 09:44:32;;;;;;;14.50;9.30;;;18.20;75.10;;;;;;10364359;28;20038;-48
2023/05/10 09:49:34;;;;;;;12.40;8.35;;;18.20;75.10;;;;;;10364499;28;20496;-50
2023/05/10 09:54:35;;;;;;;13.00;9.07;;;18.20;75.00;;;;;;10364382;28;20463;-48
2023/05/10 09:59:43;;;;;;;16.95;7.53;;;18.30;74.90;;;;;;10364199;28;20018;-48
2023/05/10 10:04:43;;;;;;;13.88;7.10;;;18.20;75.00;;;;;;10370040;28;20398;-49
2023/05/10 10:09:44;;;;;;;17.63;8.00;;;18.20;75.10;;;;;;10372701;28;20057;-48
2023/05/10 10:14:47;;;;;;;20.08;8.18;;;18.20;75.30;;;;;;10369798;28;20053;-47
2023/05/10 10:19:48;;;;;;;19.85;8.38;;;18.30;75.40;;;;;;10371043;28;20497;-48
2023/05/10 10:24:50;;;;;;;12.63;7.35;;;18.30;75.30;;;;;;10358068;28;20484;-49
2023/05/10 10:30:12;;;;;;;13.98;7.32;;;18.30;75.10;;;;;;10371372;28;20018;-48
2023/05/10 10:35:14;;;;;;;29.73;10.07;;;18.20;75.30;;;;;;10359646;28;20117;-46
2023/05/10 10:40:28;;;;;;;21.27;8.25;;;18.20;75.30;;;;;;10370109;28;20040;-49
2023/05/10 10:45:29;;;;;;;16.08;6.60;;;18.30;75.50;;;;;;10371180;28;20699;-46
2023/05/10 10:50:30;;;;;;;16.67;7.78;;;18.30;75.50;;;;;;10369297;28;20034;-47
2023/05/10 10:55:30;;;;;;;17.02;8.07;;;18.30;75.40;;;;;;10370720;28;20018;-46
2023/05/10 11:00:35;;;;;;;15.23;7.32;;;18.30;75.20;;;;;;10369285;28;20491;-48
2023/05/10 11:05:39;;;;;;;13.55;6.85;;;18.30;75.20;;;;;;10370215;28;20760;-48
2023/05/10 11:10:51;;;;;;;8.73;5.13;;;18.30;75.20;;;;;;10357248;28;20062;-47
2023/05/10 11:15:53;;;;;;;19.90;7.03;;;18.30;75.20;;;;;;10368569;28;20365;-48
2023/05/10 11:20:59;;;;;;;16.52;6.72;;;18.30;75.10;;;;;;10369618;28;20488;-47
2023/05/10 11:26:04;;;;;;;19.38;6.45;;;18.30;75.00;;;;;;10369479;28;20026;-48
2023/05/10 11:31:05;;;;;;;15.70;7.20;;;18.20;74.70;;;;;;10368840;28;20013;-48
2023/05/10 11:36:15;;;;;;;13.25;6.85;;;18.30;74.60;;;;;;10367780;28;20087;-49
2023/05/10 11:41:21;;;;;;;8.05;6.00;;;18.30;74.60;;;;;;10368436;28;20040;-48
2023/05/10 11:46:24;;;;;;;10.85;6.22;;;18.30;74.60;;;;;;10368910;28;20048;-49
2023/05/10 11:51:25;;;;;;;8.85;5.82;;;18.30;74.40;;;;;;10368758;28;20092;-47
2023/05/10 11:56:26;;;;;;;12.35;5.88;;;18.30;74.40;;;;;;10368278;28;20030;-49
2023/05/10 12:01:28;;;;;;;10.45;6.05;;;18.40;74.30;;;;;;10367092;28;20037;-47
2023/05/10 12:06:32;;;;;;;11.25;7.32;;;18.40;74.20;;;;;;10366635;28;20129;-48
2023/05/10 12:11:36;;;;;;;7.88;5.07;;;18.40;74.30;;;;;;10367701;28;20022;-48
2023/05/10 12:16:36;;;;;;;10.80;5.22;;;18.30;74.10;;;;;;10366343;28;20026;-48
2023/05/10 12:21:38;;;;;;;8.95;6.00;;;18.30;74.10;;;;;;10367144;28;20037;-50
2023/05/10 12:26:39;;;;;;;11.38;6.25;;;18.30;74.20;;;;;;10352638;28;20465;-47
2023/05/10 12:31:56;;;;;;;21.33;7.38;;;18.40;74.10;;;;;;10367703;28;20076;-47
2023/05/10 12:36:58;;;;;;;10.75;6.32;;;18.40;74.50;;;;;;10366374;28;20079;-48
2023/05/10 12:41:58;;;;;;;12.13;6.03;;;18.50;74.50;;;;;;10365168;28;20033;-49
2023/05/10 12:46:59;;;;;;;9.57;5.32;;;18.50;74.10;;;;;;10366434;28;20014;-48
2023/05/10 12:52:00;;;;;;;10.25;5.32;;;18.40;74.10;;;;;;10366102;28;20105;-47
2023/05/10 12:57:00;;;;;;;11.35;5.82;;;18.40;74.10;;;;;;10366127;28;20053;-48
2023/05/10 13:02:01;;;;;;;7.00;4.50;;;18.50;74.10;;;;;;10365353;28;20113;-49
2023/05/10 13:07:02;;;;;;;10.38;5.50;;;18.40;74.00;;;;;;10353983;28;20489;-48
2023/05/10 13:12:03;;;;;;;7.70;4.90;;;18.40;74.00;;;;;;10364073;28;20087;-50
2023/05/10 13:17:03;;;;;;;11.73;6.15;;;18.40;74.10;;;;;;10365182;28;20569;-48
2023/05/10 13:22:04;;;;;;;10.73;5.28;;;18.40;73.90;;;;;;10365158;28;20661;-46
2023/05/10 13:27:05;;;;;;;8.25;5.32;;;18.40;73.90;;;;;;10361722;28;20028;-46
2023/05/10 13:32:06;;;;;;;14.05;6.38;;;18.40;73.90;;;;;;10373290;28;20160;-49
2023/05/10 13:37:06;;;;;;;7.35;4.78;;;18.30;74.00;;;;;;10364630;28;20022;-47
2023/05/10 13:42:07;;;;;;;10.20;4.85;;;18.30;74.20;;;;;;10364190;28;20113;-49
2023/05/10 13:47:08;;;;;;;11.40;4.88;;;18.30;74.10;;;;;;10349950;28;20024;-47
2023/05/10 13:52:09;;;;;;;11.48;5.72;;;18.20;74.20;;;;;;10364508;28;20102;-49
2023/05/10 13:57:12;;;;;;;9.73;5.40;;;18.30;74.30;;;;;;10363230;28;20026;-47
2023/05/10 14:02:13;;;;;;;22.42;7.28;;;18.30;74.70;;;;;;10363063;28;20037;-46
2023/05/10 14:07:13;;;;;;;19.80;7.00;;;18.40;74.60;;;;;;10361842;28;20038;-45
2023/05/10 14:12:15;;;;;;;16.83;7.25;;;18.30;74.90;;;;;;10368039;28;20040;-46
2023/05/10 14:17:15;;;;;;;13.50;5.35;;;18.30;75.00;;;;;;10367145;28;20053;-51
2023/05/10 14:22:16;;;;;;;9.52;4.78;;;18.30;75.20;;;;;;10385772;28;20109;-48
2023/05/10 14:27:17;;;;;;;12.25;5.75;;;18.30;75.30;;;;;;10378574;28;20106;-50
2023/05/10 14:32:18;;;;;;;15.45;6.88;;;18.30;75.00;;;;;;10374418;28;20018;-47
2023/05/10 14:37:19;;;;;;;12.75;5.57;;;18.30;75.30;;;;;;10384460;28;20057;-50
2023/05/10 14:42:19;;;;;;;10.88;5.93;;;18.30;75.40;;;;;;10367951;28;20129;-48
2023/05/10 14:47:20;;;;;;;11.60;5.25;;;18.30;75.40;;;;;;10363261;28;20046;-47
2023/05/10 14:52:21;;;;;;;9.55;4.55;;;18.30;75.30;;;;;;10369982;28;20100;-46
2023/05/10 14:57:21;;;;;;;10.27;4.75;;;18.30;75.30;;;;;;10372269;28;20104;-44
2023/05/10 15:02:22;;;;;;;13.85;5.60;;;18.40;75.30;;;;;;10373492;28;20542;-46
2023/05/10 15:07:23;;;;;;;14.50;5.05;;;18.40;75.20;;;;;;10377844;28;20499;-46
2023/05/10 15:12:24;;;;;;;16.63;5.38;;;18.40;74.80;;;;;;10371477;28;20009;-47
2023/05/10 15:17:24;;;;;;;14.35;5.38;;;18.40;74.70;;;;;;10383241;28;20022;-45
2023/05/10 15:22:28;;;;;;;17.20;6.78;;;18.40;74.50;;;;;;10365460;28;20022;-47
2023/05/10 15:27:28;;;;;;;20.35;8.02;;;18.50;75.00;;;;;;10368522;28;20025;-47
2023/05/10 15:32:29;;;;;;;13.85;7.20;;;18.50;74.90;;;;;;10369620;28;20026;-48
2023/05/10 15:37:30;;;;;;;14.30;7.95;;;18.60;75.50;;;;;;10369565;28;20914;-45
2023/05/10 15:42:31;;;;;;;13.15;5.82;;;18.90;75.20;;;;;;10368865;28;20044;-47
2023/05/10 15:47:32;;;;;;;17.88;6.78;;;19.00;74.50;;;;;;10367250;28;20049;-49
2023/05/10 15:52:33;;;;;;;22.20;8.32;;;19.20;74.00;;;;;;10367525;28;20033;-47
2023/05/10 15:57:34;;;;;;;22.95;7.68;;;19.30;75.20;;;;;;10367220;28;20030;-48
2023/05/10 16:02:36;;;;;;;22.00;6.03;;;19.40;76.00;;;;;;10367937;28;20076;-46
2023/05/10 16:07:36;;;;;;;14.52;6.68;;;19.60;75.40;;;;;;10366922;28;20616;-48
2023/05/10 16:12:38;;;;;;;16.45;7.72;;;19.80;75.20;;;;;;10367666;28;20014;-47
2023/05/10 16:17:38;;;;;;;17.77;6.32;;;19.80;75.40;;;;;;10367473;28;20030;-45
2023/05/10 16:22:39;;;;;;;15.63;6.78;;;19.90;75.60;;;;;;10367480;28;20030;-47
2023/05/10 16:27:40;;;;;;;17.05;6.65;;;19.90;76.00;;;;;;10363544;28;20033;-46
2023/05/10 16:32:41;;;;;;;17.58;7.05;;;19.90;75.90;;;;;;10377622;28;20121;-45
2023/05/10 16:37:41;;;;;;;17.13;8.70;;;20.00;75.70;;;;;;10366546;28;20125;-48
2023/05/10 16:42:42;;;;;;;12.65;8.05;;;19.80;76.70;;;;;;10366626;28;20109;-46
2023/05/10 16:47:43;;;;;;;11.77;8.60;;;19.70;76.80;;;;;;10366279;28;20035;-46
2023/05/10 16:52:43;;;;;;;18.08;7.57;;;19.80;76.60;;;;;;10366098;28;20014;-46
2023/05/10 16:57:44;;;;;;;13.57;6.95;;;19.70;75.70;;;;;;10365920;28;20447;-45
2023/05/10 17:02:45;;;;;;;14.40;6.68;;;19.60;76.10;;;;;;10365582;28;20037;-47
2023/05/10 17:07:45;;;;;;;14.93;6.60;;;19.50;76.30;;;;;;10354944;28;20393;-46
2023/05/10 17:12:46;;;;;;;11.82;8.05;;;19.40;75.80;;;;;;10359637;28;20026;-47
2023/05/10 17:17:47;;;;;;;11.57;6.40;;;19.40;76.00;;;;;;10364491;28;20022;-46
2023/05/10 17:22:48;;;;;;;14.85;6.65;;;19.20;76.00;;;;;;10363506;28;20125;-46
2023/05/10 17:27:48;;;;;;;11.65;6.07;;;19.20;76.10;;;;;;10365200;28;20068;-49
2023/05/10 17:32:49;;;;;;;9.43;6.07;;;19.20;76.20;;;;;;10343420;28;20129;-45
2023/05/10 17:37:50;;;;;;;11.05;5.63;;;19.10;76.20;;;;;;10350403;28;20110;-45
2023/05/10 17:42:51;;;;;;;11.35;6.20;;;19.00;76.20;;;;;;10356031;28;20022;-47
2023/05/10 17:47:51;;;;;;;10.70;5.67;;;19.00;76.40;;;;;;11305223;23;20176;-53
2023/05/10 17:52:52;;;;;;;11.05;5.72;;;19.00;75.60;;;;;;10177919;28;20055;-56
2023/05/10 17:57:53;;;;;;;9.65;5.68;;;19.00;76.20;;;;;;10190253;29;20114;-55
2023/05/10 18:02:54;;;;;;;9.52;5.53;;;19.00;76.10;;;;;;10197095;29;20423;-57
2023/05/10 18:07:55;;;;;;;13.05;5.80;;;19.00;75.90;;;;;;10202104;29;20047;-56
2023/05/10 18:12:57;;;;;;;10.20;5.32;;;18.90;75.90;;;;;;10199372;29;20374;-56
2023/05/10 18:18:01;;;;;;;13.00;6.03;;;18.90;76.10;;;;;;10199062;29;20046;-56
2023/05/10 18:23:02;;;;;;;11.27;6.18;;;18.90;76.30;;;;;;10188372;29;20451;-55
2023/05/10 18:28:03;;;;;;;11.57;5.70;;;18.80;76.10;;;;;;10189971;29;20486;-55
2023/05/10 18:33:03;;;;;;;11.95;5.88;;;18.80;76.50;;;;;;10196854;29;20035;-56
2023/05/10 18:38:04;;;;;;;12.75;5.10;;;18.90;76.90;;;;;;10181660;29;20019;-55
2023/05/10 18:43:05;;;;;;;13.18;5.75;;;18.90;76.10;;;;;;10198951;29;20118;-56
2023/05/10 18:48:06;;;;;;;8.95;4.80;;;18.80;76.50;;;;;;10169570;28;21403;-55
2023/05/10 18:53:07;;;;;;;8.55;4.45;;;18.80;76.40;;;;;;10179126;29;20663;-54
2023/05/10 18:58:08;;;;;;;7.72;5.20;;;18.70;76.50;;;;;;10181451;29;20123;-54
2023/05/10 19:03:08;;;;;;;10.60;5.22;;;18.70;76.50;;;;;;10168827;29;20111;-55
2023/05/10 19:08:09;;;;;;;8.88;4.10;;;18.70;76.50;;;;;;10172204;29;20114;-56
2023/05/10 19:13:09;;;;;;;8.48;4.55;;;18.70;76.60;;;;;;10199236;29;20107;-55
2023/05/10 19:18:10;;;;;;;11.55;5.00;;;18.70;76.70;;;;;;10168620;29;20158;-55
2023/05/10 19:23:11;;;;;;;10.40;5.30;;;18.60;76.60;;;;;;10162945;29;20462;-54
2023/05/10 19:28:11;;;;;;;6.40;3.75;;;18.60;76.60;;;;;;10164743;29;20111;-54
2023/05/10 19:33:12;;;;;;;7.72;3.53;;;18.60;76.70;;;;;;10181648;29;20031;-55
2023/05/10 19:38:13;;;;;;;7.60;3.83;;;18.60;76.60;;;;;;10192859;29;20543;-54
2023/05/10 19:43:14;;;;;;;9.60;4.55;;;18.60;76.60;;;;;;10207118;29;20092;-53
2023/05/10 19:48:15;;;;;;;6.97;3.65;;;18.60;76.60;;;;;;10206084;29;20063;-55
2023/05/10 19:53:15;;;;;;;6.15;4.15;;;18.50;76.50;;;;;;10208090;29;20128;-56
2023/05/10 19:58:16;;;;;;;6.38;3.65;;;18.50;76.40;;;;;;10180084;29;20123;-55
2023/05/10 20:03:17;;;;;;;6.13;3.25;;;18.50;76.40;;;;;;10167550;29;20024;-52
2023/05/10 20:08:18;;;;;;;6.75;3.63;;;18.50;76.30;;;;;;10168866;29;20066;-53
2023/05/10 20:13:18;;;;;;;5.68;3.33;;;18.50;76.40;;;;;;10167299;29;20067;-59
2023/05/10 20:18:19;;;;;;;6.85;3.20;;;18.50;76.30;;;;;;10168448;29;20115;-54
2023/05/10 20:23:20;;;;;;;4.80;3.33;;;18.50;76.20;;;;;;10150942;29;20115;-56
2023/05/10 20:28:24;;;;;;;5.85;3.83;;;18.50;76.10;;;;;;10168072;29;20020;-55
2023/05/10 20:33:24;;;;;;;4.97;3.47;;;18.50;76.10;;;;;;10189087;29;20482;-55
2023/05/10 20:38:25;;;;;;;4.43;3.08;;;18.40;76.00;;;;;;10206883;29;20114;-54
2023/05/10 20:43:27;;;;;;;4.82;3.22;;;18.40;75.80;;;;;;10205505;29;20034;-56
2023/05/10 20:48:29;;;;;;;5.32;2.63;;;18.40;75.80;;;;;;10205477;29;20054;-56
2023/05/10 20:53:29;;;;;;;5.75;3.55;;;18.40;75.80;;;;;;10205651;29;20046;-54
2023/05/10 20:58:30;;;;;;;5.90;3.40;;;18.40;75.80;;;;;;10206261;29;20024;-56
2023/05/10 21:03:31;;;;;;;4.72;2.90;;;18.40;75.80;;;;;;10201930;29;20144;-55
2023/05/10 21:08:31;;;;;;;6.45;3.50;;;18.40;75.80;;;;;;10149293;29;20034;-54
2023/05/10 21:13:32;;;;;;;5.25;3.20;;;18.40;76.20;;;;;;10196109;29;20140;-55
2023/05/10 21:18:33;;;;;;;5.80;4.07;;;18.40;75.60;;;;;;10205652;29;20020;-56
2023/05/10 21:23:34;;;;;;;5.25;3.45;;;18.40;75.60;;;;;;10184793;29;20119;-56
2023/05/10 21:28:34;;;;;;;4.88;3.38;;;18.40;75.60;;;;;;10165804;29;20497;-57
2023/05/10 21:33:35;;;;;;;6.40;3.47;;;18.30;75.50;;;;;;10187273;29;20119;-54
2023/05/10 21:38:36;;;;;;;4.82;3.15;;;18.30;75.50;;;;;;10204971;29;20128;-56
2023/05/10 21:43:36;;;;;;;4.50;3.13;;;18.40;75.60;;;;;;10204811;29;20111;-56
2023/05/10 21:48:37;;;;;;;4.40;3.25;;;18.30;75.50;;;;;;10203901;29;20907;-51
2023/05/10 21:53:38;;;;;;;4.97;2.45;;;18.30;75.50;;;;;;10129072;29;20055;-57
2023/05/10 21:58:38;;;;;;;4.15;3.00;;;18.30;75.50;;;;;;10190601;29;20039;-55
2023/05/10 22:03:39;;;;;;;3.63;2.42;;;18.30;75.50;;;;;;10163645;29;20553;-55
2023/05/10 22:08:40;;;;;;;5.00;3.38;;;18.30;75.50;;;;;;10152289;29;20012;-56
2023/05/10 22:13:40;;;;;;;4.65;2.75;;;18.30;75.50;;;;;;10166751;29;20067;-56
2023/05/10 22:18:42;;;;;;;5.43;2.95;;;18.30;75.40;;;;;;10169776;29;20052;-55
2023/05/10 22:23:43;;;;;;;4.93;3.20;;;18.30;75.40;;;;;;10147488;29;20028;-56
2023/05/10 22:28:43;;;;;;;4.93;3.58;;;18.30;75.40;;;;;;10173392;29;20030;-55
2023/05/10 22:33:44;;;;;;;6.43;3.30;;;18.20;75.30;;;;;;10173433;29;20111;-57
2023/05/10 22:38:45;;;;;;;4.03;3.30;;;18.20;75.40;;;;;;10164159;29;20060;-55
2023/05/10 22:43:45;;;;;;;5.45;3.20;;;18.20;75.30;;;;;;10163025;29;20115;-54
2023/05/10 22:48:47;;;;;;;4.20;2.80;;;18.20;75.30;;;;;;10200777;29;20048;-56
2023/05/10 22:53:48;;;;;;;6.18;3.28;;;18.20;75.30;;;;;;10163254;29;20341;-54
2023/05/10 22:58:49;;;;;;;5.03;3.75;;;18.20;75.30;;;;;;10162701;29;20070;-55
2023/05/10 23:03:49;;;;;;;4.72;2.97;;;18.20;75.20;;;;;;10164593;29;20032;-55
2023/05/10 23:08:50;;;;;;;5.03;3.25;;;18.20;75.20;;;;;;10148099;29;20020;-54
2023/05/10 23:13:51;;;;;;;3.53;2.78;;;18.20;75.20;;;;;;10169547;29;20055;-55
2023/05/10 23:18:52;;;;;;;4.60;3.30;;;18.20;75.20;;;;;;10154593;29;20059;-55
2023/05/10 23:23:53;;;;;;;4.38;3.28;;;18.20;75.30;;;;;;10169122;29;20063;-56
2023/05/10 23:28:54;;;;;;;4.60;3.22;;;18.20;75.20;;;;;;10170559;29;20542;-56
2023/05/10 23:33:55;;;;;;;4.20;3.03;;;18.20;75.20;;;;;;10193935;29;20111;-55
2023/05/10 23:38:55;;;;;;;5.30;3.42;;;18.20;75.20;;;;;;10209320;29;20024;-56
2023/05/10 23:43:56;;;;;;;4.35;2.88;;;18.20;75.20;;;;;;10194650;29;20788;-56
2023/05/10 23:48:57;;;;;;;5.00;3.22;;;18.20;75.20;;;;;;10168247;29;20079;-54
2023/05/10 23:53:58;;;;;;;4.55;3.25;;;18.20;75.20;;;;;;10168337;29;20060;-56
2023/05/10 23:58:58;;;;;;;5.45;3.30;;;18.20;75.20;;;;;;10173157;29;20027;-56
